createdAt,value
2018-03-02T00:00:07.811Z,28.85
2018-03-02T00:05:54.583Z,28.10
2018-03-02T00:08:21.227Z,24.35
2018-03-02T00:11:00.899Z,25.27
2018-03-02T00:13:58.329Z,35.75
2018-03-02T00:16:25.076Z,28.42
2018-03-02T00:18:51.629Z,22.85
2018-03-02T00:21:18.284Z,29.98
2018-03-02T00:23:44.942Z,29.95
2018-03-02T00:26:12.443Z,28.12
2018-03-02T00:28:39.138Z,27.33
2018-03-02T00:31:05.819Z,26.52
2018-03-02T00:33:32.485Z,27.65
2018-03-02T00:35:59.998Z,32.20
2018-03-02T00:38:26.660Z,28.65
2018-03-02T00:40:53.249Z,23.42
2018-03-02T00:43:19.848Z,27.25
2018-03-02T00:45:46.616Z,32.65
2018-03-02T00:51:28.921Z,28.90
2018-03-02T00:53:55.623Z,39.67
2018-03-02T00:56:22.279Z,27.92
2018-03-02T00:58:48.889Z,31.83
2018-03-02T01:04:11.026Z,31.40
2018-03-02T01:06:38.345Z,36.47
2018-03-02T01:09:05.057Z,36.75
2018-03-02T01:11:31.659Z,31.45
2018-03-02T01:13:58.282Z,31.45
2018-03-02T01:16:24.950Z,31.02
2018-03-02T01:19:12.621Z,26.23
2018-03-02T01:21:39.366Z,27.00
2018-03-02T01:24:05.923Z,32.97
2018-03-02T01:26:32.495Z,27.87
2018-03-02T01:29:11.984Z,38.83
2018-03-02T01:31:38.745Z,26.27
2018-03-02T01:34:05.447Z,22.65
2018-03-02T01:36:40.815Z,40.55
2018-03-02T01:39:08.300Z,33.13
2018-03-02T01:41:35.024Z,31.65
2018-03-02T01:44:01.613Z,33.13
2018-03-02T01:46:28.294Z,28.98
2018-03-02T01:49:11.241Z,32.05
2018-03-02T01:51:48.940Z,40.03
2018-03-02T01:56:53.279Z,35.72
2018-03-02T01:59:19.960Z,33.83
2018-03-02T02:01:47.350Z,34.30
2018-03-02T02:04:14.100Z,33.33
2018-03-02T02:06:41.507Z,44.00
2018-03-02T02:09:08.206Z,38.13
2018-03-02T02:11:34.801Z,39.97
2018-03-02T02:14:03.544Z,37.78
2018-03-02T02:16:30.263Z,36.47
2018-03-02T02:18:56.901Z,43.05
2018-03-02T02:21:23.521Z,35.65
2018-03-02T02:23:52.101Z,32.88
2018-03-02T02:26:18.720Z,35.72
2018-03-02T02:28:47.198Z,35.65
2018-03-02T02:31:13.846Z,31.73
2018-03-02T02:33:41.431Z,40.38
2018-03-02T02:36:08.095Z,37.33
2018-03-02T02:38:34.854Z,41.05
2018-03-02T02:41:02.110Z,40.78
2018-03-02T02:43:32.380Z,32.95
2018-03-02T02:46:03.466Z,36.80
2018-03-02T02:48:30.196Z,40.22
2018-03-02T02:50:56.842Z,32.72
2018-03-02T02:53:27.006Z,37.33
2018-03-02T02:55:53.715Z,32.20
2018-03-02T02:58:20.366Z,36.53
2018-03-02T03:00:51.113Z,39.85
2018-03-02T03:03:20.183Z,36.35
2018-03-02T03:05:48.330Z,38.65
2018-03-02T03:08:15.038Z,32.42
2018-03-02T03:10:41.655Z,32.13
2018-03-02T03:13:08.253Z,35.40
2018-03-02T03:15:34.882Z,38.97
2018-03-02T03:18:01.519Z,35.67
2018-03-02T03:20:28.245Z,40.12
2018-03-02T03:22:54.868Z,35.25
2018-03-02T03:25:21.531Z,37.40
2018-03-02T03:27:48.944Z,33.63
2018-03-02T03:30:15.520Z,37.15
2018-03-02T03:32:42.196Z,35.72
2018-03-02T03:35:11.210Z,38.83
2018-03-02T03:37:38.581Z,45.03
2018-03-02T03:40:05.204Z,36.83
2018-03-02T03:42:35.177Z,36.30
2018-03-02T03:45:01.871Z,39.28
2018-03-02T03:47:28.502Z,37.67
2018-03-02T03:49:55.159Z,31.87
2018-03-02T03:52:21.792Z,35.47
2018-03-02T03:54:48.381Z,40.38
2018-03-02T03:57:23.500Z,39.58
2018-03-02T03:59:50.251Z,43.92
2018-03-02T04:02:17.609Z,41.37
2018-03-02T04:04:44.203Z,41.72
2018-03-02T04:07:10.876Z,39.92
2018-03-02T04:09:38.212Z,40.03
2018-03-02T04:12:04.817Z,41.97
2018-03-02T04:14:31.536Z,37.15
2018-03-02T04:17:05.967Z,40.08
2018-03-02T04:19:32.717Z,44.60
2018-03-02T04:21:59.448Z,40.00
2018-03-02T04:24:26.182Z,39.50
2018-03-02T04:26:52.837Z,42.85
2018-03-02T04:29:33.774Z,43.85
2018-03-02T04:32:01.059Z,44.03
2018-03-02T04:34:27.684Z,41.00
2018-03-02T04:36:55.119Z,45.12
2018-03-02T04:42:11.948Z,42.92
2018-03-02T04:44:38.554Z,35.80
2018-03-02T04:47:05.264Z,42.33
2018-03-02T04:49:31.821Z,42.65
2018-03-02T04:51:58.396Z,39.45
2018-03-02T04:54:45.953Z,44.75
2018-03-02T04:57:13.325Z,35.58
2018-03-02T04:59:41.867Z,41.63
2018-03-02T05:02:08.444Z,43.05
2018-03-02T05:04:35.162Z,45.80
2018-03-02T05:10:12.529Z,45.47
2018-03-02T05:12:39.904Z,41.78
2018-03-02T05:15:06.477Z,47.13
2018-03-02T05:17:33.110Z,43.03
2018-03-02T05:23:27.794Z,46.55
2018-03-02T05:28:54.459Z,45.45
2018-03-02T05:31:45.622Z,35.88
2018-03-02T05:34:31.179Z,41.22
2018-03-02T05:40:22.209Z,44.00
2018-03-02T05:42:48.839Z,45.50
2018-03-02T05:45:15.482Z,44.88
2018-03-02T05:47:42.446Z,43.35
2018-03-02T05:53:11.446Z,39.45
2018-03-02T05:55:49.033Z,47.75
2018-03-02T05:58:16.396Z,41.42
2018-03-02T06:00:43.152Z,43.75
2018-03-02T06:03:18.286Z,48.60
2018-03-02T06:05:44.910Z,43.13
2018-03-02T06:08:11.510Z,37.15
2018-03-02T06:10:38.154Z,54.55
2018-03-02T06:13:04.728Z,57.62
2018-03-02T06:15:31.358Z,46.00
2018-03-02T06:17:58.047Z,48.17
2018-03-02T06:20:52.517Z,38.40
2018-03-02T06:23:19.952Z,45.45
2018-03-02T06:25:46.541Z,49.33
2018-03-02T06:28:20.149Z,47.03
2018-03-02T06:30:48.962Z,43.30
2018-03-02T06:36:31.224Z,53.60
2018-03-02T06:38:57.788Z,50.75
2018-03-02T06:44:26.368Z,48.42
2018-03-02T06:46:55.518Z,49.15
2018-03-02T06:49:22.216Z,45.72
2018-03-02T06:51:48.824Z,43.80
2018-03-02T06:54:15.441Z,48.05
2018-03-02T06:56:42.765Z,58.58
2018-03-02T06:59:09.449Z,45.20
2018-03-02T07:01:36.827Z,51.10
2018-03-02T07:04:03.433Z,47.35
2018-03-02T07:06:35.833Z,43.55
2018-03-02T07:09:03.323Z,48.70
2018-03-02T07:11:29.938Z,35.67
2018-03-02T07:13:56.574Z,52.33
2018-03-02T07:16:23.343Z,49.22
2018-03-02T07:19:44.994Z,45.10
2018-03-02T07:22:11.634Z,48.47
2018-03-02T07:24:38.423Z,50.53
2018-03-02T07:27:24.868Z,54.78
2018-03-02T07:29:51.469Z,44.03
2018-03-02T07:32:18.106Z,47.28
2018-03-02T07:34:47.962Z,60.75
2018-03-02T07:37:15.444Z,40.70
2018-03-02T07:39:42.270Z,42.08
2018-03-02T07:42:08.859Z,49.92
2018-03-02T07:44:35.481Z,41.70
2018-03-02T07:47:02.130Z,49.55
2018-03-02T07:49:28.769Z,54.42
2018-03-02T07:52:17.282Z,44.25
2018-03-02T07:57:43.813Z,32.13
2018-03-02T08:02:57.688Z,48.40
2018-03-02T08:05:26.231Z,51.90
2018-03-02T08:07:52.930Z,48.30
2018-03-02T08:10:48.109Z,52.65
2018-03-02T08:13:14.719Z,49.53
2018-03-02T08:15:56.930Z,53.92
2018-03-02T08:18:53.185Z,47.95
2018-03-02T08:21:19.800Z,42.33
2018-03-02T08:23:46.420Z,60.22
2018-03-02T08:26:13.064Z,43.92
2018-03-02T08:28:49.118Z,54.40
2018-03-02T08:33:49.913Z,54.53
2018-03-02T08:36:18.586Z,54.70
2018-03-02T08:38:45.177Z,52.00
2018-03-02T08:41:18.210Z,62.28
2018-03-02T08:43:44.823Z,50.45
2018-03-02T08:46:18.562Z,47.95
2018-03-02T08:48:45.221Z,45.45
2018-03-02T08:51:11.845Z,56.20
2018-03-02T08:53:39.350Z,51.70
2018-03-02T08:56:05.971Z,48.67
2018-03-02T08:58:32.737Z,54.67
2018-03-02T09:00:59.372Z,56.50
2018-03-02T09:03:25.948Z,48.17
2018-03-02T09:05:52.532Z,51.83
2018-03-02T09:08:19.150Z,43.28
2018-03-02T09:10:45.806Z,44.75
2018-03-02T09:13:12.376Z,52.65
2018-03-02T09:15:39.368Z,57.92
2018-03-02T09:18:05.980Z,50.28
2018-03-02T09:20:32.604Z,48.15
2018-03-02T09:22:59.355Z,52.35
2018-03-02T09:25:26.238Z,58.13
2018-03-02T09:27:52.846Z,52.65
2018-03-02T09:30:19.576Z,61.47
2018-03-02T09:32:46.151Z,46.50
2018-03-02T09:35:12.755Z,47.17
2018-03-02T09:37:40.064Z,48.53
2018-03-02T09:40:06.685Z,43.78
2018-03-02T09:42:33.998Z,57.08
2018-03-02T09:45:00.866Z,50.42
2018-03-02T09:47:27.493Z,47.80
2018-03-02T09:49:54.085Z,53.25
2018-03-02T09:52:20.709Z,44.58
2018-03-02T09:54:47.451Z,45.38
2018-03-02T09:57:14.070Z,49.53
2018-03-02T09:59:40.663Z,51.28
2018-03-02T10:02:07.435Z,52.08
2018-03-02T10:04:34.062Z,55.83
2018-03-02T10:07:00.616Z,52.80
2018-03-02T10:09:27.242Z,54.28
2018-03-02T10:11:53.801Z,44.97
2018-03-02T10:14:20.536Z,47.60
2018-03-02T10:16:47.116Z,56.15
2018-03-02T10:19:13.684Z,55.63
2018-03-02T10:21:40.369Z,53.92
2018-03-02T10:24:07.031Z,49.60
2018-03-02T10:26:33.687Z,48.75
2018-03-02T10:29:00.342Z,53.90
2018-03-02T10:31:28.347Z,42.72
2018-03-02T10:34:12.030Z,57.90
2018-03-02T10:36:38.633Z,45.28
2018-03-02T10:39:14.023Z,48.87
2018-03-02T10:41:40.676Z,43.35
2018-03-02T10:44:07.301Z,42.85
2018-03-02T10:46:33.998Z,45.83
2018-03-02T10:49:00.860Z,58.90
2018-03-02T10:51:41.461Z,52.62
2018-03-02T10:54:08.253Z,47.35
2018-03-02T10:56:34.971Z,48.70
2018-03-02T10:59:08.988Z,51.30
2018-03-02T11:01:43.597Z,50.72
2018-03-02T11:04:10.301Z,48.40
2018-03-02T11:06:38.039Z,47.50
2018-03-02T11:09:12.475Z,57.03
2018-03-02T11:11:42.776Z,49.22
2018-03-02T11:14:41.300Z,49.20
2018-03-02T11:17:09.008Z,50.63
2018-03-02T11:19:35.712Z,54.13
2018-03-02T11:22:02.359Z,47.92
2018-03-02T11:24:28.918Z,47.28
2018-03-02T11:27:04.026Z,43.70
2018-03-02T11:29:44.329Z,50.08
2018-03-02T12:05:38.263Z,48.38
2018-03-02T12:08:04.861Z,48.35
2018-03-02T12:10:31.437Z,50.05
2018-03-02T12:13:16.441Z,39.08
2018-03-02T12:15:43.270Z,51.33
2018-03-02T12:18:10.053Z,46.65
2018-03-02T12:30:28.734Z,49.70
2018-03-02T12:32:55.349Z,46.50
2018-03-02T12:38:41.832Z,52.28
2018-03-02T12:41:08.414Z,48.28
2018-03-02T12:43:35.113Z,48.75
2018-03-02T12:52:18.535Z,49.60
2018-03-02T12:58:06.641Z,46.13
2018-03-02T13:03:48.075Z,47.92
2018-03-02T13:06:14.670Z,41.47
2018-03-02T13:08:41.272Z,52.83
2018-03-02T13:11:31.294Z,46.95
2018-03-02T13:13:57.932Z,49.25
2018-03-02T13:25:24.922Z,48.83
2018-03-02T13:34:10.480Z,44.67
2018-03-02T13:36:58.493Z,45.00
2018-03-02T13:42:35.810Z,49.78
2018-03-02T13:51:35.521Z,52.20
2018-03-02T13:54:02.140Z,44.20
2018-03-02T13:59:25.972Z,43.40
2018-03-02T14:01:53.368Z,47.45
2018-03-02T14:07:21.295Z,47.65
2018-03-02T14:09:47.872Z,49.47
2018-03-02T14:15:24.065Z,46.05
2018-03-02T14:17:50.748Z,46.90
2018-03-02T14:23:27.135Z,45.05
2018-03-02T14:32:41.524Z,45.17
2018-03-02T14:35:14.585Z,45.25
2018-03-02T14:38:09.523Z,45.00
2018-03-02T14:40:36.218Z,41.65
2018-03-02T14:43:23.699Z,45.00
2018-03-02T14:45:50.759Z,45.88
2018-03-02T14:48:17.544Z,46.60
2018-03-02T14:50:48.161Z,46.83
2018-03-02T14:59:34.579Z,44.47
2018-03-02T15:05:01.435Z,44.65
2018-03-02T15:10:37.454Z,45.28
2018-03-02T15:13:09.716Z,49.63
2018-03-02T15:15:36.284Z,43.75
2018-03-02T15:18:02.896Z,44.83
2018-03-02T15:23:42.578Z,45.25
2018-03-02T15:26:09.202Z,48.20
2018-03-02T15:28:35.807Z,40.92
2018-03-02T15:34:23.056Z,43.47
2018-03-02T15:40:26.793Z,51.42
2018-03-02T15:42:53.419Z,43.50
2018-03-02T15:45:20.148Z,47.05
2018-03-02T15:47:46.858Z,42.92
2018-03-02T15:50:15.545Z,45.55
2018-03-02T15:52:44.041Z,48.75
2018-03-02T15:55:12.827Z,38.25
2018-03-02T15:57:39.466Z,41.97
2018-03-02T16:00:06.835Z,42.85
2018-03-02T16:02:34.235Z,47.15
2018-03-02T16:05:00.859Z,46.85
2018-03-02T16:07:50.211Z,44.22
2018-03-02T16:10:17.548Z,48.20
2018-03-02T16:12:44.169Z,49.53
2018-03-02T16:15:10.732Z,51.72
2018-03-02T16:17:37.354Z,40.67
2018-03-02T16:20:04.732Z,48.33
2018-03-02T16:22:32.062Z,48.92
2018-03-02T16:24:58.919Z,45.40
2018-03-02T16:27:39.968Z,47.75
2018-03-02T16:30:09.519Z,53.58
2018-03-02T16:32:37.123Z,47.62
2018-03-02T16:35:04.452Z,56.55
2018-03-02T16:37:32.043Z,52.83
2018-03-02T16:40:00.492Z,48.70
2018-03-02T16:42:27.279Z,48.05
2018-03-02T16:44:53.916Z,51.72
2018-03-02T16:47:20.602Z,52.53
2018-03-02T16:49:47.254Z,51.78
2018-03-02T16:52:31.803Z,50.42
2018-03-02T16:54:58.414Z,53.35
2018-03-02T16:57:25.250Z,51.97
2018-03-02T16:59:51.892Z,60.35
2018-03-02T17:02:19.249Z,51.30
2018-03-02T17:04:45.921Z,49.67
2018-03-02T17:07:12.565Z,50.90
2018-03-02T17:09:46.591Z,48.22
2018-03-02T17:12:24.399Z,50.33
2018-03-02T17:15:13.697Z,54.40
2018-03-02T17:17:46.324Z,53.95
2018-03-02T17:20:15.554Z,49.72
2018-03-02T17:22:43.826Z,60.70
2018-03-02T17:25:11.692Z,52.10
2018-03-02T17:27:39.931Z,52.05
2018-03-02T17:30:14.546Z,56.10
2018-03-02T17:32:45.556Z,58.13
2018-03-02T17:35:16.621Z,55.88
2018-03-02T17:37:44.388Z,60.50
2018-03-02T17:40:12.086Z,56.28
2018-03-02T17:42:39.390Z,59.70
2018-03-02T17:45:06.369Z,63.10
2018-03-02T17:47:34.506Z,56.63
2018-03-02T17:50:01.508Z,57.90
2018-03-02T17:52:29.676Z,56.13
2018-03-02T17:54:57.208Z,57.72
2018-03-02T17:57:24.794Z,61.35
2018-03-02T17:59:51.771Z,55.53
2018-03-02T18:02:19.489Z,55.80
2018-03-02T18:04:56.996Z,61.10
2018-03-02T18:07:26.045Z,61.22
2018-03-02T18:09:53.118Z,70.12
2018-03-02T18:12:31.558Z,61.22
2018-03-02T18:15:02.462Z,63.63
2018-03-02T18:17:32.728Z,55.85
2018-03-02T18:20:00.651Z,61.17
2018-03-02T18:22:29.083Z,59.63
2018-03-02T18:24:55.804Z,68.85
2018-03-02T18:27:26.423Z,63.85
2018-03-02T18:29:53.123Z,68.35
2018-03-02T18:32:20.650Z,56.22
2018-03-02T18:34:48.114Z,61.80
2018-03-02T18:37:14.866Z,57.95
2018-03-02T18:39:41.556Z,56.65
2018-03-02T18:42:08.282Z,56.22
2018-03-02T18:44:36.079Z,53.30
2018-03-02T18:47:03.706Z,67.20
2018-03-02T18:49:30.352Z,61.53
2018-03-02T18:51:56.979Z,66.68
2018-03-02T18:54:23.700Z,66.25
2018-03-02T18:56:50.690Z,62.97
2018-03-02T18:59:20.879Z,66.30
2018-03-02T19:01:53.342Z,66.53
2018-03-02T19:04:19.986Z,63.60
2018-03-02T19:06:46.564Z,72.40
2018-03-02T19:09:13.582Z,65.15
2018-03-02T19:11:40.192Z,59.40
2018-03-02T19:14:06.995Z,70.72
2018-03-02T19:16:33.558Z,65.30
2018-03-02T19:19:00.140Z,60.58
2018-03-02T19:21:26.734Z,62.28
2018-03-02T19:23:53.366Z,64.95
2018-03-02T19:26:19.998Z,65.60
2018-03-02T19:28:46.576Z,56.37
2018-03-02T19:31:13.337Z,58.30
2018-03-02T19:33:39.936Z,63.28
2018-03-02T19:36:07.887Z,66.05
2018-03-02T19:38:35.423Z,63.53
2018-03-02T19:41:10.431Z,56.70
2018-03-02T19:43:40.018Z,66.93
2018-03-02T19:46:09.062Z,68.53
2018-03-02T19:48:38.127Z,66.28
2018-03-02T19:51:06.890Z,61.22
2018-03-02T19:53:35.118Z,62.72
2018-03-02T19:56:05.453Z,69.62
2018-03-02T19:58:33.114Z,69.37
2018-03-02T20:01:01.329Z,63.70
2018-03-02T20:03:30.632Z,63.53
2018-03-02T20:09:03.195Z,63.05
2018-03-02T20:11:31.350Z,64.22
2018-03-02T20:13:59.658Z,65.12
2018-03-02T20:16:35.806Z,60.70
2018-03-02T20:19:04.278Z,62.80
2018-03-02T20:21:32.401Z,69.65
2018-03-02T20:24:12.613Z,67.70
2018-03-02T20:26:50.806Z,62.00
2018-03-02T20:29:18.503Z,65.62
2018-03-02T20:31:45.719Z,68.47
2018-03-02T20:34:20.157Z,62.53
2018-03-02T20:36:48.149Z,64.78
2018-03-02T20:39:16.841Z,66.20
2018-03-02T20:41:46.718Z,61.63
2018-03-02T20:58:19.504Z,70.75
2018-03-02T21:00:47.105Z,73.90
2018-03-02T21:03:15.260Z,70.97
2018-03-02T21:05:45.313Z,65.18
2018-03-02T21:08:12.097Z,69.78
2018-03-02T21:10:42.392Z,63.65
2018-03-02T21:13:17.344Z,71.78
2018-03-02T21:15:44.081Z,75.05
2018-03-02T21:18:10.837Z,73.82
2018-03-02T21:20:37.442Z,64.75
2018-03-02T21:23:04.088Z,63.95
2018-03-02T21:25:30.913Z,66.20
2018-03-02T21:27:58.257Z,64.10
2018-03-02T21:30:28.614Z,60.88
2018-03-02T21:33:00.418Z,57.92
2018-03-02T21:35:27.999Z,64.60
2018-03-02T21:38:01.803Z,68.60
2018-03-02T21:40:28.699Z,66.32
2018-03-02T21:42:55.385Z,62.45
2018-03-02T21:45:22.158Z,64.95
2018-03-02T21:47:49.903Z,64.22
2018-03-02T21:50:20.592Z,61.30
2018-03-02T21:52:49.544Z,60.70
2018-03-02T21:55:25.902Z,63.25
2018-03-02T21:57:53.366Z,59.72
2018-03-02T22:00:20.118Z,64.18
2018-03-02T22:02:51.926Z,57.55
2018-03-02T22:05:18.721Z,65.53
2018-03-02T22:07:45.913Z,62.70
2018-03-02T22:10:12.932Z,61.67
2018-03-02T22:12:40.702Z,59.45
2018-03-02T22:15:07.384Z,68.72
2018-03-02T22:17:34.833Z,61.50
2018-03-02T22:20:02.479Z,62.15
2018-03-02T22:22:29.157Z,68.95
2018-03-02T22:24:56.022Z,63.85
2018-03-02T22:27:22.855Z,59.20
2018-03-02T22:29:49.506Z,63.70
2018-03-02T22:32:16.208Z,67.28
2018-03-02T22:34:43.156Z,67.37
2018-03-02T22:37:12.185Z,60.55
2018-03-02T22:39:38.912Z,65.80
2018-03-02T22:42:07.528Z,68.65
2018-03-02T22:44:34.196Z,61.83
2018-03-02T22:47:05.321Z,67.97
2018-03-02T22:49:31.902Z,70.57
2018-03-02T22:51:58.503Z,64.37
2018-03-02T22:54:25.295Z,66.68
2018-03-02T22:56:52.679Z,62.08
2018-03-02T22:59:19.480Z,66.90
2018-03-02T23:01:46.242Z,68.93
2018-03-02T23:04:25.439Z,69.50
2018-03-02T23:06:52.065Z,73.87
2018-03-02T23:09:18.713Z,75.78
2018-03-02T23:11:45.341Z,69.78
2018-03-02T23:14:11.966Z,75.55
2018-03-02T23:16:38.684Z,72.45
2018-03-02T23:19:05.846Z,71.22
2018-03-02T23:21:32.605Z,82.62
2018-03-02T23:23:59.638Z,70.97
2018-03-02T23:26:27.125Z,79.00
2018-03-02T23:28:53.798Z,81.18
2018-03-02T23:31:20.892Z,72.55
2018-03-02T23:33:47.648Z,79.75
2018-03-02T23:36:14.774Z,77.65
2018-03-02T23:38:42.478Z,75.30
2018-03-02T23:41:09.150Z,83.22
2018-03-02T23:43:36.213Z,79.20
2018-03-02T23:46:36.641Z,71.72
2018-03-02T23:49:05.935Z,79.40
2018-03-02T23:51:53.193Z,82.07
2018-03-02T23:54:26.806Z,75.12
2018-03-02T23:57:00.519Z,77.12
2018-03-02T23:59:32.276Z,78.57
